createdAt,value
2018-05-21T00:01:02.987Z,11.00
2018-05-21T00:03:30.554Z,10.90
2018-05-21T00:05:58.133Z,11.00
2018-05-21T00:08:25.726Z,11.00
2018-05-21T00:10:53.321Z,11.00
2018-05-21T00:13:20.886Z,11.10
2018-05-21T00:15:48.603Z,11.20
2018-05-21T00:18:16.169Z,11.30
2018-05-21T00:20:43.778Z,11.20
2018-05-21T00:23:11.339Z,11.20
2018-05-21T00:25:38.932Z,11.20
2018-05-21T00:28:06.486Z,11.30
2018-05-21T00:30:34.840Z,11.30
2018-05-21T00:33:02.405Z,11.30
2018-05-21T00:35:30.725Z,11.30
2018-05-21T00:37:58.318Z,11.20
2018-05-21T00:40:25.893Z,11.30
2018-05-21T00:42:54.998Z,11.20
2018-05-21T00:45:22.598Z,11.30
2018-05-21T00:47:50.412Z,11.20
2018-05-21T00:50:18.016Z,11.10
2018-05-21T00:52:45.657Z,11.10
2018-05-21T00:55:25.103Z,11.00
2018-05-21T00:57:53.448Z,11.00
2018-05-21T01:00:21.041Z,11.00
2018-05-21T01:02:49.414Z,10.90
2018-05-21T01:05:17.000Z,10.90
2018-05-21T01:07:44.758Z,10.80
2018-05-21T01:10:12.348Z,10.80
2018-05-21T01:12:39.916Z,10.90
2018-05-21T01:15:07.480Z,10.80
2018-05-21T01:17:35.017Z,10.70
2018-05-21T01:20:02.647Z,10.70
2018-05-21T01:22:30.209Z,10.70
2018-05-21T01:24:57.794Z,10.60
2018-05-21T01:27:25.357Z,10.50
2018-05-21T01:29:53.096Z,10.60
2018-05-21T01:32:20.630Z,10.60
2018-05-21T01:34:49.001Z,10.50
2018-05-21T01:37:16.567Z,10.50
2018-05-21T01:39:44.147Z,10.40
2018-05-21T01:42:11.741Z,10.40
2018-05-21T01:44:39.293Z,10.40
2018-05-21T01:47:06.923Z,10.30
2018-05-21T01:49:34.504Z,10.40
2018-05-21T01:52:02.096Z,10.30
2018-05-21T01:54:29.663Z,10.20
2018-05-21T01:56:57.241Z,10.20
2018-05-21T01:59:25.593Z,10.30
2018-05-21T02:01:53.904Z,10.20
2018-05-21T02:04:21.597Z,10.20
2018-05-21T02:06:49.195Z,10.20
2018-05-21T02:09:16.751Z,10.20
2018-05-21T02:11:44.323Z,10.20
2018-05-21T02:14:12.762Z,10.20
2018-05-21T02:16:40.547Z,10.20
2018-05-21T02:19:08.883Z,10.10
2018-05-21T02:21:36.448Z,10.00
2018-05-21T02:24:04.003Z,10.00
2018-05-21T02:26:31.675Z,9.90
2018-05-21T02:28:59.246Z,9.90
2018-05-21T02:31:26.962Z,9.90
2018-05-21T02:33:55.598Z,9.80
2018-05-21T02:36:23.297Z,9.80
2018-05-21T02:38:51.644Z,9.60
2018-05-21T02:41:19.184Z,9.60
2018-05-21T02:43:46.784Z,9.60
2018-05-21T02:46:14.325Z,9.70
2018-05-21T02:48:41.946Z,9.60
2018-05-21T02:51:09.483Z,9.50
2018-05-21T02:53:37.065Z,9.50
2018-05-21T02:56:04.627Z,9.40
2018-05-21T02:58:32.203Z,9.40
2018-05-21T03:00:59.739Z,9.40
2018-05-21T03:03:27.387Z,9.40
2018-05-21T03:05:54.969Z,9.40
2018-05-21T03:08:22.557Z,9.40
2018-05-21T03:10:50.121Z,9.40
2018-05-21T03:13:17.719Z,9.50
2018-05-21T03:15:45.277Z,9.50
2018-05-21T03:18:13.599Z,9.50
2018-05-21T03:20:41.160Z,9.50
2018-05-21T03:23:08.785Z,9.40
2018-05-21T03:25:36.336Z,9.30
2018-05-21T03:28:04.114Z,9.20
2018-05-21T03:30:31.689Z,9.20
2018-05-21T03:32:59.248Z,9.20
2018-05-21T03:35:26.790Z,9.30
2018-05-21T03:37:54.354Z,9.30
2018-05-21T03:40:21.919Z,9.50
2018-05-21T03:42:49.781Z,9.40
2018-05-21T03:45:17.339Z,9.30
2018-05-21T03:47:45.048Z,9.30
2018-05-21T03:50:12.652Z,9.20
2018-05-21T03:52:40.199Z,9.20
2018-05-21T03:55:07.736Z,9.10
2018-05-21T03:57:35.494Z,9.10
2018-05-21T04:00:14.720Z,9.20
2018-05-21T04:02:53.991Z,9.20
2018-05-21T04:05:21.557Z,9.10
2018-05-21T04:07:49.966Z,9.30
2018-05-21T04:10:17.722Z,9.40
2018-05-21T04:12:45.255Z,9.60
2018-05-21T04:15:12.826Z,9.60
2018-05-21T04:17:40.380Z,9.70
2018-05-21T04:20:07.951Z,9.70
2018-05-21T04:22:35.643Z,9.80
2018-05-21T04:25:03.212Z,9.80
2018-05-21T04:27:32.292Z,10.00
2018-05-21T04:29:59.908Z,10.00
2018-05-21T04:32:27.494Z,10.30
2018-05-21T04:34:55.908Z,10.60
2018-05-21T04:37:23.623Z,10.50
2018-05-21T04:39:51.298Z,10.60
2018-05-21T04:42:18.870Z,10.70
2018-05-21T04:44:46.433Z,10.60
2018-05-21T04:47:14.001Z,10.70
2018-05-21T04:49:41.804Z,10.80
2018-05-21T04:52:10.128Z,11.60
2018-05-21T04:54:38.005Z,11.60
2018-05-21T04:57:05.588Z,11.80
2018-05-21T04:59:33.190Z,11.90
2018-05-21T05:02:00.758Z,12.00
2018-05-21T05:04:28.345Z,12.00
2018-05-21T05:06:55.961Z,11.90
2018-05-21T05:09:23.544Z,12.00
2018-05-21T05:11:51.097Z,12.00
2018-05-21T05:14:18.965Z,12.00
2018-05-21T05:16:46.512Z,12.10
2018-05-21T05:19:14.095Z,12.10
2018-05-21T05:21:41.653Z,12.20
2018-05-21T05:24:09.271Z,12.20
2018-05-21T05:26:36.862Z,12.30
2018-05-21T05:29:04.431Z,12.40
2018-05-21T05:31:32.013Z,12.50
2018-05-21T05:33:59.840Z,12.60
2018-05-21T05:36:27.406Z,12.70
2018-05-21T05:38:54.944Z,12.80
2018-05-21T05:41:22.531Z,12.90
2018-05-21T05:43:50.125Z,13.00
2018-05-21T05:46:17.709Z,13.20
2018-05-21T05:48:45.321Z,13.30
2018-05-21T05:51:12.877Z,13.60
2018-05-21T05:53:40.452Z,13.90
2018-05-21T05:56:08.016Z,14.10
2018-05-21T05:58:35.732Z,14.60
2018-05-21T06:01:03.566Z,14.80
2018-05-21T06:03:31.934Z,15.10
2018-05-21T06:06:00.235Z,15.30
2018-05-21T06:08:27.810Z,15.20
2018-05-21T06:10:55.434Z,15.30
2018-05-21T06:13:23.038Z,15.40
2018-05-21T06:15:50.565Z,15.50
2018-05-21T06:18:18.904Z,15.60
2018-05-21T06:20:46.586Z,15.60
2018-05-21T06:23:14.164Z,15.70
2018-05-21T06:25:42.508Z,16.30
2018-05-21T06:28:10.058Z,16.20
2018-05-21T06:30:37.636Z,16.30
2018-05-21T06:33:05.184Z,16.50
2018-05-21T06:35:32.757Z,16.50
2018-05-21T06:38:01.817Z,16.50
2018-05-21T06:40:29.530Z,16.50
2018-05-21T06:42:57.216Z,16.60
2018-05-21T06:45:24.771Z,16.70
2018-05-21T06:47:52.376Z,16.70
2018-05-21T06:50:20.049Z,16.80
2018-05-21T06:52:47.632Z,16.90
2018-05-21T06:55:15.211Z,16.90
2018-05-21T06:57:42.778Z,17.00
2018-05-21T07:00:10.349Z,17.00
2018-05-21T07:02:38.001Z,17.00
2018-05-21T07:05:05.666Z,17.00
2018-05-21T07:07:33.349Z,17.10
2018-05-21T07:10:00.924Z,17.20
2018-05-21T07:12:28.514Z,17.30
2018-05-21T07:14:56.259Z,17.40
2018-05-21T07:17:23.827Z,17.50
2018-05-21T07:19:51.404Z,17.70
2018-05-21T07:22:18.997Z,17.90
2018-05-21T07:24:46.586Z,18.00
2018-05-21T07:27:14.161Z,18.00
2018-05-21T07:29:41.833Z,18.20
2018-05-21T07:32:10.169Z,18.40
2018-05-21T07:34:37.737Z,18.30
2018-05-21T07:37:05.350Z,18.50
2018-05-21T07:39:33.068Z,18.50
2018-05-21T07:42:00.689Z,18.60
2018-05-21T07:44:28.362Z,18.70
2018-05-21T07:46:56.007Z,18.70
2018-05-21T07:49:23.754Z,18.90
2018-05-21T07:51:51.382Z,19.00
2018-05-21T07:54:18.999Z,19.10
2018-05-21T07:56:46.584Z,19.20
2018-05-21T07:59:14.335Z,19.30
2018-05-21T08:01:41.922Z,19.60
2018-05-21T08:04:09.513Z,19.70
2018-05-21T08:06:37.912Z,19.90
2018-05-21T08:09:06.249Z,19.80
2018-05-21T08:11:33.837Z,19.90
2018-05-21T08:14:01.424Z,19.90
2018-05-21T08:16:29.029Z,20.10
2018-05-21T08:18:56.638Z,20.00
2018-05-21T08:21:24.196Z,20.10
2018-05-21T08:23:51.790Z,20.10
2018-05-21T08:26:19.487Z,20.20
2018-05-21T08:28:47.843Z,20.50
2018-05-21T08:31:15.433Z,20.50
2018-05-21T08:33:43.033Z,20.70
2018-05-21T08:36:10.618Z,20.70
2018-05-21T08:38:38.194Z,20.70
2018-05-21T08:41:06.533Z,20.80
2018-05-21T08:43:34.271Z,20.70
2018-05-21T08:46:01.832Z,20.80
2018-05-21T08:48:29.496Z,20.80
2018-05-21T08:50:57.827Z,21.00
2018-05-21T08:53:25.539Z,20.90
2018-05-21T08:55:53.235Z,20.90
2018-05-21T08:58:20.801Z,21.10
2018-05-21T09:00:48.401Z,21.00
2018-05-21T09:03:16.040Z,21.20
2018-05-21T09:05:44.413Z,21.20
2018-05-21T09:08:12.769Z,21.20
2018-05-21T09:10:40.362Z,21.20
2018-05-21T09:13:07.925Z,21.30
2018-05-21T09:15:35.565Z,21.40
2018-05-21T09:18:03.118Z,21.50
2018-05-21T09:20:30.706Z,21.60
2018-05-21T09:22:59.898Z,21.90
2018-05-21T09:25:27.481Z,21.90
2018-05-21T09:27:55.043Z,22.00
2018-05-21T09:30:22.621Z,22.10
2018-05-21T09:32:50.341Z,22.10
2018-05-21T09:35:17.952Z,22.10
2018-05-21T09:37:45.587Z,22.10
2018-05-21T09:40:13.174Z,22.20
2018-05-21T09:42:40.806Z,22.30
2018-05-21T09:45:08.375Z,22.40
2018-05-21T09:47:36.008Z,22.60
2018-05-21T09:50:03.581Z,22.70
2018-05-21T09:52:31.138Z,23.00
2018-05-21T09:54:58.776Z,23.30
2018-05-21T09:57:26.488Z,23.50
2018-05-21T09:59:55.484Z,23.50
2018-05-21T10:02:23.280Z,23.70
2018-05-21T10:04:50.903Z,24.20
2018-05-21T10:07:18.719Z,24.00
2018-05-21T10:09:47.071Z,24.70
2018-05-21T10:12:15.546Z,25.10
2018-05-21T10:14:43.102Z,25.00
2018-05-21T10:17:10.678Z,25.80
2018-05-21T10:19:38.262Z,26.10
2018-05-21T10:22:05.875Z,26.50
2018-05-21T10:24:33.486Z,26.40
2018-05-21T10:27:01.106Z,26.80
2018-05-21T10:29:28.689Z,27.30
2018-05-21T10:31:57.943Z,27.30
2018-05-21T10:34:25.538Z,27.30
2018-05-21T10:36:53.219Z,27.50
2018-05-21T10:39:21.588Z,27.10
2018-05-21T10:41:49.197Z,27.20
2018-05-21T10:44:16.762Z,27.50
2018-05-21T10:46:44.328Z,27.90
2018-05-21T10:49:11.953Z,28.10
2018-05-21T10:51:39.537Z,28.20
2018-05-21T10:54:07.194Z,28.30
2018-05-21T10:56:35.028Z,28.70
2018-05-21T10:59:02.543Z,28.70
2018-05-21T11:01:30.160Z,28.40
2018-05-21T11:03:57.735Z,28.90
2018-05-21T11:06:25.399Z,29.40
2018-05-21T11:08:52.940Z,29.60
2018-05-21T11:11:20.576Z,29.60
2018-05-21T11:13:49.100Z,29.10
2018-05-21T11:16:16.680Z,29.00
2018-05-21T11:18:44.531Z,29.10
2018-05-21T11:21:12.294Z,29.60
2018-05-21T11:23:40.592Z,29.90
2018-05-21T11:26:08.179Z,29.90
2018-05-21T11:28:36.534Z,30.10
2018-05-21T11:31:04.271Z,30.10
2018-05-21T11:33:31.863Z,30.50
2018-05-21T11:36:01.311Z,31.30
2018-05-21T11:38:28.933Z,31.30
2018-05-21T11:40:56.521Z,31.30
2018-05-21T11:43:24.866Z,31.20
2018-05-21T11:45:52.481Z,31.20
2018-05-21T11:48:20.215Z,31.20
2018-05-21T11:50:47.987Z,31.60
2018-05-21T11:53:15.781Z,31.60
2018-05-21T11:55:43.650Z,32.00
2018-05-21T11:58:11.218Z,32.00
2018-05-21T12:00:38.801Z,32.20
2018-05-21T12:03:06.616Z,32.20
2018-05-21T12:05:34.168Z,32.70
2018-05-21T12:08:02.521Z,32.40
2018-05-21T12:10:30.077Z,32.40
2018-05-21T12:12:58.615Z,32.30
2018-05-21T12:15:26.269Z,32.30
2018-05-21T12:17:53.867Z,32.20
2018-05-21T12:20:21.489Z,29.80
2018-05-21T12:22:49.100Z,32.80
2018-05-21T12:25:17.691Z,33.10
2018-05-21T12:27:45.241Z,33.10
2018-05-21T12:30:14.423Z,33.00
2018-05-21T12:32:42.023Z,33.00
2018-05-21T12:35:09.647Z,33.50
2018-05-21T12:37:37.266Z,34.00
2018-05-21T12:40:04.910Z,33.70
2018-05-21T12:42:32.594Z,32.70
2018-05-21T12:45:00.167Z,33.60
2018-05-21T12:47:28.034Z,33.90
2018-05-21T12:49:55.642Z,34.40
2018-05-21T12:52:23.362Z,34.40
2018-05-21T12:54:51.022Z,34.60
2018-05-21T12:57:18.773Z,34.70
2018-05-21T12:59:46.468Z,35.20
2018-05-21T13:02:14.008Z,34.80
2018-05-21T13:04:41.604Z,34.30
2018-05-21T13:07:09.461Z,34.50
2018-05-21T13:09:37.213Z,34.00
2018-05-21T13:12:04.905Z,34.70
2018-05-21T13:14:32.457Z,34.90
2018-05-21T13:17:00.940Z,34.80
2018-05-21T13:19:29.307Z,35.40
2018-05-21T13:21:56.917Z,35.50
2018-05-21T13:24:24.733Z,35.50
2018-05-21T13:26:52.363Z,34.90
2018-05-21T13:29:20.040Z,35.10
2018-05-21T13:31:47.582Z,34.70
2018-05-21T13:34:15.166Z,34.10
2018-05-21T13:36:43.053Z,34.00
2018-05-21T13:39:11.411Z,34.30
2018-05-21T13:41:39.027Z,34.30
2018-05-21T13:44:06.615Z,35.00
2018-05-21T13:46:34.181Z,34.90
2018-05-21T13:49:02.833Z,34.60
2018-05-21T13:51:30.452Z,36.00
2018-05-21T13:53:58.078Z,35.10
2018-05-21T13:56:25.748Z,34.90
2018-05-21T13:58:53.338Z,34.90
2018-05-21T14:01:22.513Z,35.70
2018-05-21T14:03:50.126Z,35.70
2018-05-21T14:06:17.796Z,36.20
2018-05-21T14:08:46.006Z,35.30
2018-05-21T14:11:13.606Z,35.80
2018-05-21T14:13:41.212Z,36.60
2018-05-21T14:16:08.806Z,36.70
2018-05-21T14:18:37.926Z,36.30
2018-05-21T14:21:05.567Z,36.30
2018-05-21T14:23:33.154Z,35.70
2018-05-21T14:26:01.521Z,36.90
2018-05-21T14:28:29.904Z,36.10
2018-05-21T14:30:57.516Z,36.00
2018-05-21T14:33:25.151Z,35.60
2018-05-21T14:35:52.775Z,36.10
2018-05-21T14:38:21.126Z,36.40
2018-05-21T14:40:48.873Z,36.40
2018-05-21T14:43:16.478Z,36.70
2018-05-21T14:45:44.126Z,36.80
2018-05-21T14:48:11.741Z,36.80
2018-05-21T14:50:39.446Z,37.40
2018-05-21T14:53:07.169Z,37.40
2018-05-21T14:55:34.804Z,37.30
2018-05-21T14:58:02.415Z,37.30
2018-05-21T15:00:30.026Z,37.10
2018-05-21T15:02:57.607Z,37.60
2018-05-21T15:05:25.292Z,37.90
2018-05-21T15:07:52.907Z,36.00
2018-05-21T15:10:20.546Z,36.10
2018-05-21T15:12:48.895Z,36.60
2018-05-21T15:15:16.537Z,36.50
2018-05-21T15:17:44.177Z,36.50
2018-05-21T15:20:11.947Z,36.80
2018-05-21T15:22:39.609Z,36.50
2018-05-21T15:25:07.235Z,36.50
2018-05-21T15:27:35.101Z,36.00
2018-05-21T15:30:02.725Z,37.40
2018-05-21T15:32:30.601Z,36.70
2018-05-21T15:34:58.214Z,36.30
2018-05-21T15:37:25.810Z,36.00
2018-05-21T15:39:53.412Z,35.90
2018-05-21T15:42:22.028Z,36.60
2018-05-21T15:44:49.688Z,36.60
2018-05-21T15:47:17.472Z,37.40
2018-05-21T15:49:45.361Z,35.10
2018-05-21T15:52:13.756Z,34.60
2018-05-21T15:54:41.369Z,34.60
2018-05-21T15:57:08.990Z,34.10
2018-05-21T15:59:36.621Z,34.10
2018-05-21T16:02:04.246Z,32.60
2018-05-21T16:04:31.890Z,32.10
2018-05-21T16:06:59.411Z,31.10
2018-05-21T16:09:27.035Z,30.70
2018-05-21T16:11:54.652Z,30.10
2018-05-21T16:14:23.023Z,28.90
2018-05-21T16:16:50.620Z,28.90
2018-05-21T16:19:18.207Z,28.20
2018-05-21T16:21:45.864Z,28.00
2018-05-21T16:24:13.478Z,28.10
2018-05-21T16:26:41.133Z,27.60
2018-05-21T16:29:08.751Z,27.40
2018-05-21T16:31:36.353Z,27.10
2018-05-21T16:34:04.698Z,27.80
2018-05-21T16:36:32.325Z,27.80
2018-05-21T16:38:59.902Z,28.20
2018-05-21T16:41:27.565Z,28.80
2018-05-21T16:43:55.203Z,28.80
2018-05-21T16:46:22.917Z,28.10
2018-05-21T16:48:50.590Z,28.30
2018-05-21T16:51:19.213Z,27.70
2018-05-21T16:53:47.098Z,27.70
2018-05-21T16:56:14.587Z,27.10
2018-05-21T16:58:42.261Z,26.70
2018-05-21T17:01:10.748Z,26.50
2018-05-21T17:03:39.227Z,26.40
2018-05-21T17:06:07.614Z,26.10
2018-05-21T17:08:35.318Z,26.10
2018-05-21T17:11:02.907Z,26.00
2018-05-21T17:13:30.499Z,25.90
2018-05-21T17:15:59.129Z,25.70
2018-05-21T17:18:26.743Z,25.60
2018-05-21T17:20:54.717Z,25.50
2018-05-21T17:23:23.122Z,25.30
2018-05-21T17:25:50.693Z,25.20
2018-05-21T17:28:18.306Z,25.10
2018-05-21T17:30:46.923Z,25.00
2018-05-21T17:33:14.504Z,24.80
2018-05-21T17:35:42.257Z,24.80
2018-05-21T17:38:09.774Z,24.70
2018-05-21T17:40:38.199Z,24.60
2018-05-21T17:43:05.917Z,24.60
2018-05-21T17:45:34.381Z,24.40
2018-05-21T17:48:02.209Z,24.40
2018-05-21T17:50:29.815Z,24.30
2018-05-21T17:52:57.509Z,24.10
2018-05-21T17:55:25.317Z,23.90
2018-05-21T17:57:53.046Z,23.90
2018-05-21T18:00:21.252Z,23.90
2018-05-21T18:02:48.832Z,23.90
2018-05-21T18:05:17.246Z,23.80
2018-05-21T18:07:44.966Z,23.80
2018-05-21T18:10:12.615Z,23.60
2018-05-21T18:12:40.249Z,23.50
2018-05-21T18:15:08.846Z,23.30
2018-05-21T18:17:36.474Z,23.10
2018-05-21T18:20:04.900Z,22.90
2018-05-21T18:22:32.482Z,22.90
2018-05-21T18:25:00.246Z,22.80
2018-05-21T18:27:27.935Z,22.60
2018-05-21T18:29:55.558Z,22.50
2018-05-21T18:32:23.318Z,22.40
2018-05-21T18:34:50.927Z,22.30
2018-05-21T18:37:18.537Z,22.20
2018-05-21T18:39:46.172Z,22.10
2018-05-21T18:42:13.933Z,22.10
2018-05-21T18:44:41.915Z,22.10
2018-05-21T18:47:09.656Z,21.90
2018-05-21T18:49:37.466Z,21.80
2018-05-21T18:52:05.278Z,21.70
2018-05-21T18:54:32.912Z,21.60
2018-05-21T18:57:00.621Z,21.50
2018-05-21T18:59:28.545Z,21.40
2018-05-21T19:01:57.251Z,21.20
2018-05-21T19:04:24.922Z,21.20
2018-05-21T19:06:52.588Z,21.20
2018-05-21T19:09:20.189Z,21.10
2018-05-21T19:11:47.845Z,21.00
2018-05-21T19:14:15.592Z,20.80
2018-05-21T19:16:43.517Z,20.70
2018-05-21T19:19:11.145Z,20.50
2018-05-21T19:21:38.864Z,20.40
2018-05-21T19:24:06.557Z,20.30
2018-05-21T19:26:34.252Z,20.10
2018-05-21T19:29:03.076Z,20.00
2018-05-21T19:31:30.728Z,20.00
2018-05-21T19:33:58.412Z,20.00
2018-05-21T19:36:26.157Z,20.00
2018-05-21T19:38:53.788Z,19.90
2018-05-21T19:41:22.224Z,19.70
2018-05-21T19:43:50.037Z,19.70
2018-05-21T19:46:17.722Z,19.60
2018-05-21T19:48:45.527Z,19.50
2018-05-21T19:51:13.231Z,19.60
2018-05-21T19:53:40.879Z,19.40
2018-05-21T19:56:08.594Z,19.30
2018-05-21T19:58:36.252Z,19.10
2018-05-21T20:01:03.936Z,19.20
2018-05-21T20:03:31.647Z,19.00
2018-05-21T20:06:00.152Z,18.90
2018-05-21T20:08:28.032Z,18.90
2018-05-21T20:10:55.857Z,18.80
2018-05-21T20:13:23.491Z,18.80
2018-05-21T20:15:51.892Z,18.60
2018-05-21T20:18:31.294Z,18.60
2018-05-21T20:20:59.027Z,18.50
2018-05-21T20:23:26.869Z,18.30
2018-05-21T20:25:55.329Z,18.40
2018-05-21T20:28:22.980Z,18.40
2018-05-21T20:30:50.783Z,18.30
2018-05-21T20:33:18.472Z,18.30
2018-05-21T20:35:46.102Z,18.20
2018-05-21T20:38:13.705Z,18.10
2018-05-21T20:40:41.347Z,18.00
2018-05-21T20:43:09.302Z,17.80
2018-05-21T20:45:37.047Z,17.70
2018-05-21T20:48:04.844Z,17.70
2018-05-21T20:50:32.544Z,17.60
2018-05-21T20:53:00.902Z,17.60
2018-05-21T20:55:28.520Z,17.60
2018-05-21T20:57:56.184Z,17.50
2018-05-21T21:00:23.784Z,17.40
2018-05-21T21:02:51.404Z,17.50
2018-05-21T21:05:19.093Z,17.40
2018-05-21T21:07:46.969Z,17.30
2018-05-21T21:10:14.668Z,17.30
2018-05-21T21:12:43.120Z,17.10
2018-05-21T21:15:10.777Z,17.10
2018-05-21T21:17:38.400Z,17.10
2018-05-21T21:20:06.156Z,17.00
2018-05-21T21:22:33.756Z,17.00
2018-05-21T21:25:01.418Z,17.00
2018-05-21T21:27:29.048Z,16.90
2018-05-21T21:29:56.714Z,16.80
2018-05-21T21:32:24.340Z,16.70
2018-05-21T21:34:51.910Z,16.80
2018-05-21T21:37:19.541Z,16.80
2018-05-21T21:39:47.161Z,16.70
2018-05-21T21:42:14.806Z,16.60
2018-05-21T21:44:42.595Z,16.60
2018-05-21T21:47:11.158Z,16.40
2018-05-21T21:49:38.783Z,16.40
2018-05-21T21:52:06.572Z,16.40
2018-05-21T21:54:34.214Z,16.20
2018-05-21T21:57:02.625Z,15.90
2018-05-21T21:59:30.262Z,15.90
2018-05-21T22:01:58.073Z,15.80
2018-05-21T22:04:25.833Z,15.80
2018-05-21T22:06:53.453Z,15.60
2018-05-21T22:09:21.067Z,15.50
2018-05-21T22:11:48.671Z,15.40
2018-05-21T22:14:17.080Z,15.30
2018-05-21T22:16:44.940Z,15.30
2018-05-21T22:19:12.512Z,15.30
2018-05-21T22:21:40.191Z,15.20
2018-05-21T22:24:07.833Z,15.20
2018-05-21T22:26:35.543Z,15.10
2018-05-21T22:29:03.267Z,15.10
2018-05-21T22:31:30.871Z,14.90
2018-05-21T22:33:58.475Z,14.90
2018-05-21T22:36:26.101Z,14.90
2018-05-21T22:38:53.732Z,14.90
2018-05-21T22:41:21.317Z,14.80
2018-05-21T22:43:48.948Z,14.80
2018-05-21T22:46:16.567Z,14.80
2018-05-21T22:48:44.303Z,14.80
2018-05-21T22:51:12.670Z,14.70
2018-05-21T22:53:40.333Z,14.70
2018-05-21T22:56:08.122Z,14.70
2018-05-21T22:58:35.736Z,14.60
2018-05-21T23:01:03.455Z,14.70
2018-05-21T23:03:31.062Z,14.70
2018-05-21T23:05:58.732Z,14.70
2018-05-21T23:08:26.343Z,14.80
2018-05-21T23:10:53.936Z,14.80
2018-05-21T23:13:21.531Z,14.70
2018-05-21T23:15:49.276Z,14.70
2018-05-21T23:18:16.903Z,14.60
2018-05-21T23:20:44.657Z,14.60
2018-05-21T23:23:12.289Z,14.50
2018-05-21T23:25:39.857Z,14.50
2018-05-21T23:28:07.495Z,14.50
2018-05-21T23:30:35.958Z,14.50
2018-05-21T23:33:03.502Z,14.40
2018-05-21T23:35:31.126Z,14.40
2018-05-21T23:37:58.894Z,14.50
2018-05-21T23:40:26.535Z,14.60
2018-05-21T23:42:54.268Z,14.60
2018-05-21T23:45:22.640Z,14.70
2018-05-21T23:47:50.252Z,14.70
2018-05-21T23:50:17.835Z,14.80
2018-05-21T23:52:45.474Z,14.90
2018-05-21T23:55:13.240Z,15.00
2018-05-21T23:57:40.809Z,15.10
